createdAt,value
2019-03-21T00:01:16.658Z,102352.91
2019-03-21T00:03:46.761Z,102347.66
2019-03-21T00:06:19.006Z,102341.06
2019-03-21T00:08:59.411Z,102344.69
2019-03-21T00:12:05.906Z,102352.55
2019-03-21T00:14:43.895Z,102345.09
2019-03-21T00:17:13.902Z,102354.22
2019-03-21T00:19:45.930Z,102360.89
2019-03-21T00:22:15.129Z,102359.33
2019-03-21T00:24:44.300Z,102361.25
2019-03-21T00:27:13.452Z,102363.81
2019-03-21T00:29:42.603Z,102369.56
2019-03-21T00:32:11.846Z,102360.55
2019-03-21T00:34:41.073Z,102359.73
2019-03-21T00:37:10.318Z,102363.41
2019-03-21T00:39:39.458Z,102356.81
2019-03-21T00:42:08.629Z,102360.20
2019-03-21T00:44:37.777Z,102362.21
2019-03-21T00:47:06.984Z,102360.14
2019-03-21T00:49:36.145Z,102363.93
2019-03-21T00:52:05.377Z,102362.97
2019-03-21T00:54:34.530Z,102359.56
2019-03-21T00:57:03.725Z,102355.21
2019-03-21T00:59:32.957Z,102360.29
2019-03-21T01:02:02.089Z,102354.00
2019-03-21T01:04:33.479Z,102349.26
2019-03-21T01:07:02.810Z,102345.76
2019-03-21T01:09:31.953Z,102345.83
2019-03-21T01:12:01.562Z,102347.32
2019-03-21T01:14:30.825Z,102348.00
2019-03-21T01:16:59.962Z,102344.33
2019-03-21T01:19:29.123Z,102342.33
2019-03-21T01:21:58.345Z,102343.29
2019-03-21T01:24:27.500Z,102340.76
2019-03-21T01:26:56.722Z,102350.08
2019-03-21T01:29:25.888Z,102341.16
2019-03-21T01:31:55.066Z,102344.58
2019-03-21T01:34:24.241Z,102347.24
2019-03-21T01:36:53.390Z,102343.73
2019-03-21T01:39:22.565Z,102344.03
2019-03-21T01:41:51.711Z,102348.72
2019-03-21T01:44:20.892Z,102346.67
2019-03-21T01:46:50.022Z,102344.88
2019-03-21T01:49:19.164Z,102339.13
2019-03-21T01:51:48.384Z,102340.99
2019-03-21T01:54:17.545Z,102336.28
2019-03-21T01:56:46.757Z,102341.38
2019-03-21T01:59:15.929Z,102347.42
2019-03-21T02:01:45.183Z,102341.40
2019-03-21T02:04:14.358Z,102332.44
2019-03-21T02:06:43.615Z,102330.17
2019-03-21T02:09:12.883Z,102333.09
2019-03-21T02:11:42.560Z,102332.42
2019-03-21T02:14:11.700Z,102330.73
2019-03-21T02:16:40.931Z,102328.67
2019-03-21T02:19:10.066Z,102334.78
2019-03-21T02:21:39.328Z,102330.57
2019-03-21T02:24:09.060Z,102335.53
2019-03-21T02:26:38.224Z,102332.81
2019-03-21T02:29:07.371Z,102335.56
2019-03-21T02:31:36.536Z,102330.47
2019-03-21T02:34:06.525Z,102337.52
2019-03-21T02:36:35.755Z,102340.17
2019-03-21T02:39:06.663Z,102337.01
2019-03-21T02:41:35.832Z,102345.66
2019-03-21T02:44:05.086Z,102345.51
2019-03-21T02:46:34.252Z,102343.33
2019-03-21T02:49:03.405Z,102344.50
2019-03-21T02:51:32.621Z,102348.45
2019-03-21T02:54:01.756Z,102348.65
2019-03-21T02:56:30.920Z,102344.42
2019-03-21T02:59:00.174Z,102353.45
2019-03-21T03:01:29.472Z,102347.44
2019-03-21T03:03:58.641Z,102344.12
2019-03-21T03:06:27.795Z,102346.56
2019-03-21T03:08:56.975Z,102351.19
2019-03-21T03:11:26.141Z,102344.17
2019-03-21T03:13:55.552Z,102343.62
2019-03-21T03:16:24.715Z,102352.09
2019-03-21T03:18:53.940Z,102346.52
2019-03-21T03:21:23.082Z,102345.83
2019-03-21T03:23:52.243Z,102351.20
2019-03-21T03:26:21.411Z,102344.71
2019-03-21T03:28:50.592Z,102342.93
2019-03-21T03:31:19.825Z,102346.09
2019-03-21T03:33:49.034Z,102346.75
2019-03-21T03:36:18.176Z,102343.91
2019-03-21T03:38:47.354Z,102341.12
2019-03-21T03:41:16.516Z,102333.06
2019-03-21T03:43:45.707Z,102339.66
2019-03-21T03:46:14.862Z,102337.02
2019-03-21T03:48:44.064Z,102333.45
2019-03-21T03:51:13.226Z,102333.38
2019-03-21T03:53:42.859Z,102341.59
2019-03-21T03:56:12.107Z,102345.34
2019-03-21T03:58:42.652Z,102335.72
2019-03-21T04:01:11.926Z,102338.27
2019-03-21T04:03:41.157Z,102345.13
2019-03-21T04:06:10.516Z,102348.43
2019-03-21T04:08:39.789Z,102349.81
2019-03-21T04:11:08.930Z,102355.78
2019-03-21T04:13:38.138Z,102356.81
2019-03-21T04:16:07.301Z,102362.70
2019-03-21T04:18:36.435Z,102362.77
2019-03-21T04:21:06.164Z,102363.39
2019-03-21T04:23:35.365Z,102361.82
2019-03-21T04:26:11.009Z,102361.87
2019-03-21T04:28:40.501Z,102360.71
2019-03-21T04:31:09.693Z,102362.68
2019-03-21T04:33:38.848Z,102371.39
2019-03-21T04:36:07.984Z,102366.32
2019-03-21T04:38:37.154Z,102361.55
2019-03-21T04:41:06.453Z,102362.72
2019-03-21T04:43:35.663Z,102363.83
2019-03-21T04:46:04.815Z,102360.68
2019-03-21T04:48:33.974Z,102357.40
2019-03-21T04:51:03.113Z,102358.81
2019-03-21T04:53:32.281Z,102359.37
2019-03-21T04:56:01.434Z,102358.05
2019-03-21T04:58:30.581Z,102360.78
2019-03-21T05:00:59.877Z,102366.16
2019-03-21T05:03:50.313Z,102357.19
2019-03-21T05:06:19.457Z,102362.43
2019-03-21T05:08:48.618Z,102358.42
2019-03-21T05:11:17.784Z,102360.30
2019-03-21T05:13:47.000Z,102364.80
2019-03-21T05:16:16.806Z,102360.56
2019-03-21T05:18:46.591Z,102364.89
2019-03-21T05:21:16.580Z,102367.01
2019-03-21T05:23:45.770Z,102365.09
2019-03-21T05:26:15.099Z,102369.43
2019-03-21T05:28:44.320Z,102371.36
2019-03-21T05:31:23.515Z,102370.04
2019-03-21T05:33:52.709Z,102372.63
2019-03-21T05:36:21.859Z,102381.56
2019-03-21T05:38:51.026Z,102373.53
2019-03-21T05:41:20.227Z,102374.91
2019-03-21T05:43:52.673Z,102372.06
2019-03-21T05:46:26.673Z,102375.40
2019-03-21T05:48:52.733Z,102373.98
2019-03-21T05:51:21.871Z,102380.73
2019-03-21T05:53:51.015Z,102381.07
2019-03-21T05:56:20.156Z,102381.41
2019-03-21T05:58:49.346Z,102380.30
2019-03-21T06:01:18.867Z,102385.54
2019-03-21T06:03:52.022Z,102382.56
2019-03-21T06:06:37.480Z,102381.76
2019-03-21T06:09:08.836Z,102384.60
2019-03-21T06:11:39.663Z,102379.75
2019-03-21T06:15:03.822Z,102387.30
2019-03-21T06:17:33.706Z,102389.55
2019-03-21T06:20:31.843Z,102395.03
2019-03-21T06:23:33.727Z,102392.17
2019-03-21T06:26:28.091Z,102394.95
2019-03-21T06:28:57.246Z,102396.01
2019-03-21T06:31:26.389Z,102396.14
2019-03-21T06:33:55.559Z,102395.81
2019-03-21T06:36:24.714Z,102398.81
2019-03-21T06:38:53.874Z,102403.83
2019-03-21T06:41:23.041Z,102401.34
2019-03-21T06:43:52.219Z,102402.83
2019-03-21T06:46:21.392Z,102398.36
2019-03-21T06:48:50.549Z,102405.78
2019-03-21T06:51:19.708Z,102405.63
2019-03-21T06:53:48.867Z,102403.61
2019-03-21T06:56:18.039Z,102413.91
2019-03-21T06:58:47.184Z,102407.51
2019-03-21T07:01:16.341Z,102406.75
2019-03-21T07:03:45.502Z,102406.09
2019-03-21T07:06:14.758Z,102407.22
2019-03-21T07:08:43.907Z,102408.38
2019-03-21T07:11:13.123Z,102402.05
2019-03-21T07:13:42.282Z,102406.30
2019-03-21T07:16:11.441Z,102413.41
2019-03-21T07:18:40.604Z,102411.16
2019-03-21T07:21:09.868Z,102408.78
2019-03-21T07:23:39.156Z,102409.36
2019-03-21T07:26:08.409Z,102412.55
2019-03-21T07:28:38.694Z,102408.59
2019-03-21T07:31:08.018Z,102416.02
2019-03-21T07:33:37.158Z,102420.53
2019-03-21T07:36:06.321Z,102420.53
2019-03-21T07:38:35.476Z,102418.88
2019-03-21T07:41:04.636Z,102423.02
2019-03-21T07:43:33.809Z,102422.13
2019-03-21T07:46:02.972Z,102418.61
2019-03-21T07:48:32.194Z,102429.45
2019-03-21T07:51:01.358Z,102419.13
2019-03-21T07:53:30.498Z,102422.98
2019-03-21T07:55:59.649Z,102420.71
2019-03-21T07:58:28.825Z,102415.54
2019-03-21T08:00:58.002Z,102422.91
2019-03-21T08:03:30.161Z,102417.03
2019-03-21T08:05:59.350Z,102414.62
2019-03-21T08:08:28.496Z,102411.15
2019-03-21T08:10:57.672Z,102407.52
2019-03-21T08:13:26.894Z,102407.04
2019-03-21T08:15:56.073Z,102412.61
2019-03-21T08:18:25.255Z,102411.04
2019-03-21T08:20:58.637Z,102405.84
2019-03-21T08:23:25.413Z,102407.28
2019-03-21T08:25:54.637Z,102412.83
2019-03-21T08:28:23.859Z,102408.56
2019-03-21T08:31:18.697Z,102409.77
2019-03-21T08:33:47.865Z,102410.94
2019-03-21T08:36:19.546Z,102403.30
2019-03-21T08:38:48.759Z,102409.23
2019-03-21T08:41:17.918Z,102412.32
2019-03-21T08:43:47.099Z,102413.55
2019-03-21T08:46:16.404Z,102414.69
2019-03-21T08:48:45.600Z,102414.55
2019-03-21T08:51:14.930Z,102416.70
2019-03-21T08:53:44.099Z,102412.06
2019-03-21T08:56:13.394Z,102407.53
2019-03-21T08:58:42.568Z,102413.09
2019-03-21T09:01:11.698Z,102410.72
2019-03-21T09:03:40.896Z,102409.39
2019-03-21T09:06:10.121Z,102407.95
2019-03-21T09:08:39.309Z,102408.84
2019-03-21T09:11:08.541Z,102400.73
2019-03-21T09:13:37.764Z,102404.01
2019-03-21T09:16:06.992Z,102397.25
2019-03-21T09:18:36.150Z,102401.77
2019-03-21T09:21:05.394Z,102400.23
2019-03-21T09:23:34.553Z,102398.16
2019-03-21T09:26:03.843Z,102398.10
2019-03-21T09:28:33.025Z,102401.88
2019-03-21T09:31:02.181Z,102399.84
2019-03-21T09:33:31.343Z,102396.36
2019-03-21T09:36:00.493Z,102392.91
2019-03-21T09:38:29.642Z,102389.27
2019-03-21T09:40:58.811Z,102393.91
2019-03-21T09:43:27.957Z,102388.30
2019-03-21T09:45:57.093Z,102389.64
2019-03-21T09:48:26.228Z,102391.97
2019-03-21T09:50:55.361Z,102388.19
2019-03-21T09:53:24.618Z,102379.52
2019-03-21T09:55:53.803Z,102376.34
2019-03-21T09:58:22.936Z,102378.16
2019-03-21T10:00:52.118Z,102375.30
2019-03-21T10:03:21.276Z,102378.73
2019-03-21T10:05:50.439Z,102370.72
2019-03-21T10:08:19.580Z,102367.45
2019-03-21T10:10:48.784Z,102359.42
2019-03-21T10:13:17.937Z,102365.63
2019-03-21T10:15:47.098Z,102361.66
2019-03-21T10:18:16.639Z,102365.08
2019-03-21T10:20:46.069Z,102364.09
2019-03-21T10:23:15.211Z,102364.61
2019-03-21T10:25:44.370Z,102364.59
2019-03-21T10:28:13.602Z,102364.47
2019-03-21T10:30:43.113Z,102360.70
2019-03-21T10:33:15.511Z,102358.10
2019-03-21T10:35:44.692Z,102358.73
2019-03-21T10:38:13.825Z,102354.47
2019-03-21T10:40:43.104Z,102354.77
2019-03-21T10:43:12.317Z,102357.72
2019-03-21T10:45:41.599Z,102349.16
2019-03-21T10:48:10.752Z,102353.70
2019-03-21T10:50:40.758Z,102349.65
2019-03-21T10:53:10.504Z,102346.02
2019-03-21T10:55:39.894Z,102338.72
2019-03-21T10:58:09.420Z,102341.05
2019-03-21T11:00:39.182Z,102345.50
2019-03-21T11:03:08.406Z,102325.77
2019-03-21T11:05:37.778Z,102329.14
2019-03-21T11:08:07.307Z,102326.81
2019-03-21T11:10:36.685Z,102326.62
2019-03-21T11:13:07.315Z,102327.23
2019-03-21T11:15:36.524Z,102324.67
2019-03-21T11:18:05.983Z,102323.03
2019-03-21T11:20:36.745Z,102320.05
2019-03-21T11:23:07.093Z,102313.25
2019-03-21T11:25:38.941Z,102318.33
2019-03-21T11:28:08.790Z,102313.64
2019-03-21T11:30:39.551Z,102309.61
2019-03-21T11:33:08.779Z,102307.78
2019-03-21T11:35:38.288Z,102305.45
2019-03-21T11:38:07.504Z,102297.71
2019-03-21T11:40:36.887Z,102297.05
2019-03-21T11:43:07.872Z,102290.34
2019-03-21T11:45:37.099Z,102290.20
2019-03-21T11:48:06.641Z,102276.41
2019-03-21T11:50:35.799Z,102274.39
2019-03-21T11:53:05.073Z,102271.88
2019-03-21T11:55:34.307Z,102272.73
2019-03-21T11:58:03.631Z,102263.98
2019-03-21T12:00:43.013Z,102261.27
2019-03-21T12:03:04.332Z,102252.52
2019-03-21T12:05:33.642Z,102254.88
2019-03-21T12:08:02.831Z,102249.14
2019-03-21T12:10:31.976Z,102250.83
2019-03-21T12:13:01.197Z,102243.59
2019-03-21T12:15:30.382Z,102243.95
2019-03-21T12:17:59.678Z,102235.50
2019-03-21T12:20:33.231Z,102240.73
2019-03-21T12:23:02.543Z,102238.18
2019-03-21T12:25:31.698Z,102231.09
2019-03-21T12:28:01.672Z,102229.77
2019-03-21T12:30:33.429Z,102227.07
2019-03-21T12:33:02.712Z,102220.40
2019-03-21T12:35:31.885Z,102217.33
2019-03-21T12:38:01.091Z,102210.59
2019-03-21T12:40:30.265Z,102207.31
2019-03-21T12:42:59.429Z,102209.98
2019-03-21T12:45:28.590Z,102201.57
2019-03-21T12:47:57.816Z,102194.47
2019-03-21T12:50:26.977Z,102194.94
2019-03-21T12:52:56.152Z,102198.55
2019-03-21T12:55:25.327Z,102195.02
2019-03-21T12:57:54.456Z,102190.66
2019-03-21T13:00:36.477Z,102192.14
2019-03-21T13:03:05.582Z,102185.80
2019-03-21T13:05:34.791Z,102180.81
2019-03-21T13:08:03.957Z,102184.50
2019-03-21T13:10:33.108Z,102181.12
2019-03-21T13:13:02.257Z,102179.27
2019-03-21T13:15:31.427Z,102169.22
2019-03-21T13:18:00.879Z,102168.11
2019-03-21T13:20:30.597Z,102156.59
2019-03-21T13:22:59.757Z,102155.52
2019-03-21T13:25:28.993Z,102154.83
2019-03-21T13:27:58.148Z,102153.48
2019-03-21T13:30:27.403Z,102148.75
2019-03-21T13:32:56.576Z,102147.90
2019-03-21T13:35:32.503Z,102148.70
2019-03-21T13:37:56.658Z,102141.34
2019-03-21T13:40:25.818Z,102136.83
2019-03-21T13:42:54.969Z,102136.24
2019-03-21T13:45:24.129Z,102135.05
2019-03-21T13:47:53.278Z,102129.77
2019-03-21T13:50:22.458Z,102125.00
2019-03-21T13:52:51.613Z,102119.61
2019-03-21T13:55:20.773Z,102119.72
2019-03-21T13:57:50.010Z,102119.38
2019-03-21T14:00:21.707Z,102119.72
2019-03-21T14:02:50.853Z,102119.08
2019-03-21T14:05:20.188Z,102120.73
2019-03-21T14:07:49.347Z,102114.54
2019-03-21T14:10:18.659Z,102102.33
2019-03-21T14:12:48.357Z,102093.39
2019-03-21T14:15:17.849Z,102096.14
2019-03-21T14:17:47.065Z,102088.59
2019-03-21T14:20:16.553Z,102088.86
2019-03-21T14:22:45.678Z,102085.94
2019-03-21T14:25:15.196Z,102087.44
2019-03-21T14:27:44.365Z,102086.09
2019-03-21T14:30:14.935Z,102077.84
2019-03-21T14:32:44.243Z,102078.16
2019-03-21T14:35:14.984Z,102076.08
2019-03-21T14:37:44.188Z,102073.52
2019-03-21T14:40:13.881Z,102072.48
2019-03-21T14:42:43.261Z,102067.34
2019-03-21T14:45:13.184Z,102067.00
2019-03-21T14:47:42.339Z,102065.90
2019-03-21T14:50:12.183Z,102066.97
2019-03-21T14:52:41.331Z,102072.77
2019-03-21T14:55:11.101Z,102067.73
2019-03-21T14:57:40.278Z,102065.81
2019-03-21T15:00:11.965Z,102065.05
2019-03-21T15:02:42.311Z,102071.02
2019-03-21T15:05:11.601Z,102065.81
2019-03-21T15:07:41.416Z,102069.27
2019-03-21T15:10:11.015Z,102059.23
2019-03-21T15:12:40.308Z,102063.48
2019-03-21T15:15:10.528Z,102057.47
2019-03-21T15:17:39.756Z,102058.47
2019-03-21T15:20:10.730Z,102055.78
2019-03-21T15:22:39.886Z,102052.17
2019-03-21T15:25:09.844Z,102048.60
2019-03-21T15:27:39.128Z,102043.98
2019-03-21T15:30:10.321Z,102046.69
2019-03-21T15:32:41.701Z,102045.61
2019-03-21T15:35:10.952Z,102052.52
2019-03-21T15:37:40.115Z,102047.11
2019-03-21T15:40:11.108Z,102040.73
2019-03-21T15:42:40.357Z,102041.98
2019-03-21T15:45:22.096Z,102038.81
2019-03-21T15:47:42.726Z,102029.13
2019-03-21T15:50:26.605Z,102030.79
2019-03-21T15:52:55.795Z,102025.57
2019-03-21T15:55:25.214Z,102026.98
2019-03-21T15:57:54.382Z,102028.13
2019-03-21T16:00:36.502Z,102025.38
2019-03-21T16:03:06.591Z,102027.81
2019-03-21T16:05:36.235Z,102026.94
2019-03-21T16:08:08.587Z,102032.46
2019-03-21T16:10:36.904Z,102034.52
2019-03-21T16:13:06.319Z,102018.55
2019-03-21T16:15:35.463Z,102017.35
2019-03-21T16:18:05.092Z,102012.73
2019-03-21T16:20:34.544Z,102012.32
2019-03-21T16:23:03.751Z,102010.27
2019-03-21T16:25:33.048Z,102010.22
2019-03-21T16:28:02.493Z,102008.53
2019-03-21T16:30:31.805Z,102003.58
2019-03-21T16:33:00.987Z,102006.05
2019-03-21T16:35:30.173Z,101998.11
2019-03-21T16:37:59.469Z,102000.75
2019-03-21T16:40:28.677Z,101993.42
2019-03-21T16:42:57.909Z,101997.38
2019-03-21T16:45:27.080Z,101992.20
2019-03-21T16:47:56.433Z,101996.14
2019-03-21T16:50:25.636Z,101994.79
2019-03-21T16:52:54.778Z,101993.69
2019-03-21T16:55:23.986Z,101994.39
2019-03-21T16:57:53.148Z,101999.77
2019-03-21T17:00:22.403Z,101998.84
2019-03-21T17:02:51.554Z,101999.61
2019-03-21T17:05:22.303Z,102002.08
2019-03-21T17:07:51.681Z,102005.60
2019-03-21T17:10:20.841Z,102007.91
2019-03-21T17:12:50.075Z,102001.50
2019-03-21T17:15:19.174Z,102003.77
2019-03-21T17:17:49.173Z,102004.67
2019-03-21T17:20:18.373Z,102000.73
2019-03-21T17:22:47.546Z,101993.36
2019-03-21T17:25:16.677Z,101992.77
2019-03-21T17:27:45.836Z,101997.69
2019-03-21T17:30:15.095Z,101997.84
2019-03-21T17:32:44.328Z,102001.94
2019-03-21T17:35:13.574Z,102005.73
2019-03-21T17:37:42.697Z,102009.94
2019-03-21T17:40:12.259Z,102013.33
2019-03-21T17:42:41.432Z,102006.48
2019-03-21T17:45:13.895Z,102012.72
2019-03-21T17:47:43.134Z,102009.52
2019-03-21T17:50:13.221Z,102010.13
2019-03-21T17:52:42.381Z,102010.61
2019-03-21T17:55:12.022Z,102009.59
2019-03-21T17:57:41.159Z,102010.69
2019-03-21T18:00:13.842Z,102011.31
2019-03-21T18:02:43.150Z,102014.38
2019-03-21T18:05:14.100Z,102016.47
2019-03-21T18:07:43.378Z,102011.64
2019-03-21T18:10:24.954Z,102015.30
2019-03-21T18:12:54.132Z,102024.54
2019-03-21T18:15:23.281Z,102019.21
2019-03-21T18:17:52.422Z,102019.44
2019-03-21T18:20:21.677Z,102018.79
2019-03-21T18:22:50.838Z,102018.48
2019-03-21T18:25:20.078Z,102023.84
2019-03-21T18:27:49.288Z,102021.52
2019-03-21T18:30:18.608Z,102028.53
2019-03-21T18:32:47.790Z,102030.02
2019-03-21T18:35:17.069Z,102030.68
2019-03-21T18:37:46.225Z,102029.83
2019-03-21T18:40:16.464Z,102037.52
2019-03-21T18:42:45.666Z,102035.85
2019-03-21T18:45:15.350Z,102038.69
2019-03-21T18:47:44.929Z,102043.67
2019-03-21T18:50:14.349Z,102046.61
2019-03-21T18:52:43.516Z,102054.08
2019-03-21T18:55:12.865Z,102056.38
2019-03-21T18:57:42.070Z,102053.84
2019-03-21T19:00:12.112Z,102056.30
2019-03-21T19:02:41.252Z,102052.45
2019-03-21T19:05:10.420Z,102049.55
2019-03-21T19:07:39.587Z,102043.13
2019-03-21T19:10:08.913Z,102045.80
2019-03-21T19:12:38.177Z,102044.09
2019-03-21T19:15:08.567Z,102040.07
2019-03-21T19:17:37.682Z,102048.75
2019-03-21T19:20:07.283Z,102044.04
2019-03-21T19:22:36.507Z,102049.39
2019-03-21T19:25:17.993Z,102047.61
2019-03-21T19:27:49.109Z,102048.95
2019-03-21T19:30:20.778Z,102055.80
2019-03-21T19:32:55.168Z,102053.48
2019-03-21T19:35:34.857Z,102053.12
2019-03-21T19:38:09.969Z,102055.02
2019-03-21T19:40:39.362Z,102056.68
2019-03-21T19:43:11.131Z,102052.83
2019-03-21T19:45:43.386Z,102047.52
2019-03-21T19:48:16.238Z,102053.33
2019-03-21T19:50:45.927Z,102058.25
2019-03-21T19:53:18.397Z,102055.16
2019-03-21T19:55:54.914Z,102048.69
2019-03-21T19:58:29.841Z,102054.19
2019-03-21T20:01:04.250Z,102057.14
2019-03-21T20:03:37.129Z,102047.64
2019-03-21T20:06:09.235Z,102051.16
2019-03-21T20:08:46.716Z,102043.89
2019-03-21T20:11:18.903Z,102042.68
2019-03-21T20:13:49.338Z,102046.09
2019-03-21T20:16:36.682Z,102051.31
2019-03-21T20:19:06.293Z,102050.98
2019-03-21T20:21:47.329Z,102059.91
2019-03-21T20:24:15.893Z,102059.16
2019-03-21T20:26:46.363Z,102065.86
2019-03-21T20:29:19.511Z,102066.72
2019-03-21T20:31:51.192Z,102063.05
2019-03-21T20:34:27.706Z,102072.55
2019-03-21T20:37:00.386Z,102067.84
2019-03-21T20:39:48.384Z,102072.28
2019-03-21T20:42:20.682Z,102072.06
2019-03-21T20:44:50.992Z,102068.55
2019-03-21T20:47:22.513Z,102071.84
2019-03-21T20:50:00.852Z,102075.07
2019-03-21T20:52:31.530Z,102069.12
2019-03-21T20:55:05.415Z,102073.45
2019-03-21T20:57:38.708Z,102069.05
2019-03-21T21:00:11.183Z,102063.20
2019-03-21T21:02:40.937Z,102060.32
2019-03-21T21:05:10.860Z,102070.23
2019-03-21T21:07:43.458Z,102069.80
2019-03-21T21:10:15.137Z,102065.09
2019-03-21T21:12:45.450Z,102066.34
2019-03-21T21:15:15.379Z,102068.67
2019-03-21T21:17:45.956Z,102068.53
2019-03-21T21:20:24.584Z,102063.37
2019-03-21T21:23:04.732Z,102066.96
2019-03-21T21:25:37.345Z,102070.55
2019-03-21T21:28:11.615Z,102064.78
2019-03-21T21:30:43.564Z,102069.64
2019-03-21T21:33:18.103Z,102070.11
2019-03-21T21:35:48.774Z,102076.89
2019-03-21T21:38:21.260Z,102067.06
2019-03-21T21:40:54.084Z,102059.56
2019-03-21T21:43:29.719Z,102066.70
2019-03-21T21:46:02.589Z,102064.09
2019-03-21T21:48:34.073Z,102057.34
2019-03-21T21:51:04.922Z,102057.86
2019-03-21T21:53:34.750Z,102057.72
2019-03-21T21:56:17.795Z,102060.55
2019-03-21T21:58:48.433Z,102051.05
2019-03-21T22:01:18.960Z,102055.22
2019-03-21T22:03:51.151Z,102055.84
2019-03-21T22:06:34.537Z,102055.84
2019-03-21T22:09:11.484Z,102056.71
2019-03-21T22:11:45.597Z,102057.36
2019-03-21T22:14:17.256Z,102057.17
2019-03-21T22:16:46.781Z,102054.60
2019-03-21T22:19:20.293Z,102057.22
2019-03-21T22:21:53.337Z,102053.13
2019-03-21T22:24:46.834Z,102054.52
2019-03-21T22:27:21.427Z,102055.41
2019-03-21T22:29:52.006Z,102052.56
2019-03-21T22:32:25.781Z,102053.84
2019-03-21T22:34:53.405Z,102056.84
2019-03-21T22:37:24.798Z,102052.22
2019-03-21T22:39:56.077Z,102055.51
2019-03-21T22:42:25.689Z,102051.18
2019-03-21T22:44:54.960Z,102056.22
2019-03-21T22:47:24.425Z,102048.66
2019-03-21T22:49:55.455Z,102049.75
2019-03-21T22:52:25.609Z,102048.05
2019-03-21T22:54:57.404Z,102046.76
2019-03-21T22:57:31.422Z,102044.52
2019-03-21T23:00:02.749Z,102051.67
2019-03-21T23:02:34.204Z,102047.10
2019-03-21T23:05:03.569Z,102037.70
2019-03-21T23:07:32.745Z,102035.59
2019-03-21T23:10:01.906Z,102029.17
2019-03-21T23:12:31.074Z,102038.08
2019-03-21T23:15:00.345Z,102035.83
2019-03-21T23:17:29.693Z,102032.91
2019-03-21T23:19:58.861Z,102041.11
2019-03-21T23:22:28.040Z,102039.26
2019-03-21T23:24:57.184Z,102039.72
2019-03-21T23:27:26.332Z,102039.14
2019-03-21T23:29:55.507Z,102042.74
2019-03-21T23:32:24.663Z,102042.40
2019-03-21T23:34:53.811Z,102041.66
2019-03-21T23:37:22.961Z,102038.53
2019-03-21T23:39:52.124Z,102042.86
2019-03-21T23:42:21.268Z,102042.62
2019-03-21T23:44:50.407Z,102047.21
2019-03-21T23:47:19.630Z,102040.22
2019-03-21T23:49:48.792Z,102044.70
2019-03-21T23:52:17.949Z,102044.48
2019-03-21T23:54:47.209Z,102045.18
2019-03-21T23:57:16.366Z,102039.17
2019-03-21T23:59:45.539Z,102030.83
